sensor_id;sensor_type;location;lat;lon;timestamp;pressure;altitude;pressure_sealevel;temperature;humidity
33635;BME280;19972;54.360;10.076;2022-08-25T00:00:12;101851.91;;;18.72;100.00
33635;BME280;19972;54.360;10.076;2022-08-25T00:02:38;101848.31;;;18.60;100.00
33635;BME280;19972;54.360;10.076;2022-08-25T00:05:06;101848.06;;;18.63;100.00
33635;BME280;19972;54.360;10.076;2022-08-25T00:07:34;101851.25;;;18.57;100.00
33635;BME280;19972;54.360;10.076;2022-08-25T00:10:04;101861.38;;;18.65;100.00
33635;BME280;19972;54.360;10.076;2022-08-25T00:12:31;101863.13;;;18.66;100.00
33635;BME280;19972;54.360;10.076;2022-08-25T00:14:58;101872.56;;;18.71;100.00
33635;BME280;19972;54.360;10.076;2022-08-25T00:17:25;101865.69;;;18.79;100.00
33635;BME280;19972;54.360;10.076;2022-08-25T00:19:52;101867.41;;;18.68;100.00
33635;BME280;19972;54.360;10.076;2022-08-25T00:22:19;101875.97;;;18.73;100.00
33635;BME280;19972;54.360;10.076;2022-08-25T00:24:45;101879.50;;;18.63;100.00
33635;BME280;19972;54.360;10.076;2022-08-25T00:27:12;101885.97;;;18.49;100.00
33635;BME280;19972;54.360;10.076;2022-08-25T00:29:38;101899.78;;;18.44;100.00
33635;BME280;19972;54.360;10.076;2022-08-25T00:32:05;101908.44;;;18.48;100.00
33635;BME280;19972;54.360;10.076;2022-08-25T00:34:38;101910.41;;;18.57;100.00
33635;BME280;19972;54.360;10.076;2022-08-25T00:37:06;101919.97;;;18.61;100.00
33635;BME280;19972;54.360;10.076;2022-08-25T00:39:35;101925.34;;;18.50;100.00
33635;BME280;19972;54.360;10.076;2022-08-25T00:42:02;101929.47;;;18.43;100.00
33635;BME280;19972;54.360;10.076;2022-08-25T00:44:37;101941.94;;;18.33;100.00
33635;BME280;19972;54.360;10.076;2022-08-25T00:47:04;101953.75;;;18.30;100.00
33635;BME280;19972;54.360;10.076;2022-08-25T00:49:35;101961.44;;;18.24;100.00
33635;BME280;19972;54.360;10.076;2022-08-25T00:52:24;101979.91;;;18.28;100.00
33635;BME280;19972;54.360;10.076;2022-08-25T00:54:53;101979.56;;;18.33;100.00
33635;BME280;19972;54.360;10.076;2022-08-25T00:57:30;101980.91;;;18.27;100.00
33635;BME280;19972;54.360;10.076;2022-08-25T01:00:03;101995.53;;;18.23;100.00
33635;BME280;19972;54.360;10.076;2022-08-25T01:02:31;102010.19;;;18.19;100.00
33635;BME280;19972;54.360;10.076;2022-08-25T01:04:57;102024.34;;;18.21;100.00
33635;BME280;19972;54.360;10.076;2022-08-25T01:07:24;102038.56;;;18.23;100.00
33635;BME280;19972;54.360;10.076;2022-08-25T01:09:51;102060.56;;;18.28;100.00
33635;BME280;19972;54.360;10.076;2022-08-25T01:12:18;102077.09;;;18.35;100.00
33635;BME280;19972;54.360;10.076;2022-08-25T01:14:47;102085.69;;;18.40;100.00
33635;BME280;19972;54.360;10.076;2022-08-25T01:17:14;102090.94;;;18.41;100.00
33635;BME280;19972;54.360;10.076;2022-08-25T01:19:41;102098.06;;;18.54;100.00
33635;BME280;19972;54.360;10.076;2022-08-25T01:22:08;102099.34;;;18.37;100.00
33635;BME280;19972;54.360;10.076;2022-08-25T01:27:08;102125.66;;;18.20;100.00
33635;BME280;19972;54.360;10.076;2022-08-25T01:29:36;102147.16;;;18.20;100.00
33635;BME280;19972;54.360;10.076;2022-08-25T01:32:06;102162.66;;;18.17;100.00
33635;BME280;19972;54.360;10.076;2022-08-25T01:34:35;102177.41;;;18.11;100.00
33635;BME280;19972;54.360;10.076;2022-08-25T01:37:03;102183.56;;;18.01;100.00
33635;BME280;19972;54.360;10.076;2022-08-25T01:39:31;102204.41;;;17.97;100.00
33635;BME280;19972;54.360;10.076;2022-08-25T01:44:31;102237.56;;;17.72;100.00
33635;BME280;19972;54.360;10.076;2022-08-25T01:46:58;102258.34;;;17.68;100.00
33635;BME280;19972;54.360;10.076;2022-08-25T01:49:24;102280.28;;;17.62;100.00
33635;BME280;19972;54.360;10.076;2022-08-25T01:51:55;102301.53;;;17.65;100.00
33635;BME280;19972;54.360;10.076;2022-08-25T01:54:22;102317.88;;;17.62;100.00
33635;BME280;19972;54.360;10.076;2022-08-25T01:56:49;102335.28;;;17.69;100.00
33635;BME280;19972;54.360;10.076;2022-08-25T01:59:17;102344.13;;;17.72;100.00
33635;BME280;19972;54.360;10.076;2022-08-25T02:01:49;102351.81;;;17.63;100.00
33635;BME280;19972;54.360;10.076;2022-08-25T02:04:26;102368.78;;;17.51;100.00
33635;BME280;19972;54.360;10.076;2022-08-25T02:06:54;102378.66;;;17.51;100.00
33635;BME280;19972;54.360;10.076;2022-08-25T02:09:21;102382.53;;;17.59;100.00
33635;BME280;19972;54.360;10.076;2022-08-25T02:11:47;102382.53;;;17.59;100.00
33635;BME280;19972;54.360;10.076;2022-08-25T02:14:14;102386.72;;;17.51;100.00
33635;BME280;19972;54.360;10.076;2022-08-25T02:16:45;102381.03;;;17.55;100.00
33635;BME280;19972;54.360;10.076;2022-08-25T02:19:14;102378.75;;;17.49;100.00
33635;BME280;19972;54.360;10.076;2022-08-25T02:21:41;102374.00;;;17.40;100.00
33635;BME280;19972;54.360;10.076;2022-08-25T02:24:08;102365.94;;;17.40;100.00
33635;BME280;19972;54.360;10.076;2022-08-25T02:26:34;102364.22;;;17.39;100.00
33635;BME280;19972;54.360;10.076;2022-08-25T02:29:03;102354.47;;;17.38;100.00
33635;BME280;19972;54.360;10.076;2022-08-25T02:31:30;102345.88;;;17.46;100.00
33635;BME280;19972;54.360;10.076;2022-08-25T02:33:57;102327.94;;;17.46;100.00
33635;BME280;19972;54.360;10.076;2022-08-25T02:36:23;102306.44;;;17.46;100.00
33635;BME280;19972;54.360;10.076;2022-08-25T02:38:50;102297.66;;;17.44;100.00
33635;BME280;19972;54.360;10.076;2022-08-25T02:41:21;102296.13;;;17.40;100.00
33635;BME280;19972;54.360;10.076;2022-08-25T02:43:56;102292.34;;;17.30;100.00
33635;BME280;19972;54.360;10.076;2022-08-25T02:46:23;102292.72;;;17.38;100.00
33635;BME280;19972;54.360;10.076;2022-08-25T02:48:50;102291.31;;;17.32;100.00
33635;BME280;19972;54.360;10.076;2022-08-25T02:51:20;102282.03;;;17.24;100.00
33635;BME280;19972;54.360;10.076;2022-08-25T02:53:47;102273.13;;;17.23;100.00
33635;BME280;19972;54.360;10.076;2022-08-25T02:56:16;102276.09;;;17.19;100.00
33635;BME280;19972;54.360;10.076;2022-08-25T02:58:43;102260.88;;;17.19;100.00
33635;BME280;19972;54.360;10.076;2022-08-25T03:01:11;102252.06;;;17.17;100.00
33635;BME280;19972;54.360;10.076;2022-08-25T03:03:39;102247.13;;;17.11;100.00
33635;BME280;19972;54.360;10.076;2022-08-25T03:06:10;102238.50;;;17.06;100.00
33635;BME280;19972;54.360;10.076;2022-08-25T03:08:38;102217.34;;;17.01;100.00
33635;BME280;19972;54.360;10.076;2022-08-25T03:11:04;102224.84;;;16.96;100.00
33635;BME280;19972;54.360;10.076;2022-08-25T03:13:31;102221.41;;;16.94;100.00
33635;BME280;19972;54.360;10.076;2022-08-25T03:15:59;102229.47;;;16.94;100.00
33635;BME280;19972;54.360;10.076;2022-08-25T03:18:28;102228.13;;;16.87;100.00
33635;BME280;19972;54.360;10.076;2022-08-25T03:20:56;102238.31;;;16.82;100.00
33635;BME280;19972;54.360;10.076;2022-08-25T03:23:22;102248.09;;;16.83;100.00
33635;BME280;19972;54.360;10.076;2022-08-25T03:25:49;102265.91;;;16.84;100.00
33635;BME280;19972;54.360;10.076;2022-08-25T03:28:34;102274.16;;;16.81;100.00
33635;BME280;19972;54.360;10.076;2022-08-25T03:31:01;102272.44;;;16.80;100.00
33635;BME280;19972;54.360;10.076;2022-08-25T03:33:29;102269.56;;;16.83;100.00
33635;BME280;19972;54.360;10.076;2022-08-25T03:35:56;102274.44;;;16.76;100.00
33635;BME280;19972;54.360;10.076;2022-08-25T03:38:24;102280.47;;;16.80;100.00
33635;BME280;19972;54.360;10.076;2022-08-25T03:40:51;102278.19;;;16.74;100.00
33635;BME280;19972;54.360;10.076;2022-08-25T03:43:19;102301.38;;;16.75;100.00
33635;BME280;19972;54.360;10.076;2022-08-25T03:45:46;102315.25;;;16.81;100.00
33635;BME280;19972;54.360;10.076;2022-08-25T03:48:14;102313.91;;;16.88;100.00
33635;BME280;19972;54.360;10.076;2022-08-25T03:50:47;102331.56;;;16.78;100.00
33635;BME280;19972;54.360;10.076;2022-08-25T03:53:17;102345.63;;;16.68;100.00
33635;BME280;19972;54.360;10.076;2022-08-25T03:55:44;102372.31;;;16.69;100.00
33635;BME280;19972;54.360;10.076;2022-08-25T03:58:11;102381.44;;;16.67;100.00
33635;BME280;19972;54.360;10.076;2022-08-25T04:00:37;102448.47;;;16.52;100.00
33635;BME280;19972;54.360;10.076;2022-08-25T04:03:04;102589.13;;;16.47;100.00
33635;BME280;19972;54.360;10.076;2022-08-25T04:05:31;102584.81;;;16.44;100.00
33635;BME280;19972;54.360;10.076;2022-08-25T04:07:58;102585.56;;;16.46;100.00
33635;BME280;19972;54.360;10.076;2022-08-25T04:10:27;102587.19;;;16.49;100.00
33635;BME280;19972;54.360;10.076;2022-08-25T04:12:54;102594.44;;;16.62;100.00
33635;BME280;19972;54.360;10.076;2022-08-25T04:15:21;102586.13;;;16.67;100.00
33635;BME280;19972;54.360;10.076;2022-08-25T04:17:55;102584.31;;;16.68;100.00
33635;BME280;19972;54.360;10.076;2022-08-25T04:20:24;102575.84;;;16.89;100.00
33635;BME280;19972;54.360;10.076;2022-08-25T04:22:50;102568.09;;;16.99;100.00
33635;BME280;19972;54.360;10.076;2022-08-25T04:25:17;102578.72;;;17.01;100.00
33635;BME280;19972;54.360;10.076;2022-08-25T04:27:43;102575.84;;;17.04;100.00
33635;BME280;19972;54.360;10.076;2022-08-25T04:30:10;102568.66;;;17.33;100.00
33635;BME280;19972;54.360;10.076;2022-08-25T04:32:37;102568.63;;;17.61;100.00
33635;BME280;19972;54.360;10.076;2022-08-25T04:35:03;102566.50;;;17.66;100.00
33635;BME280;19972;54.360;10.076;2022-08-25T04:37:30;102566.94;;;17.87;100.00
33635;BME280;19972;54.360;10.076;2022-08-25T04:39:58;102577.03;;;17.69;100.00
33635;BME280;19972;54.360;10.076;2022-08-25T04:42:25;102584.97;;;17.71;100.00
33635;BME280;19972;54.360;10.076;2022-08-25T04:44:52;102585.72;;;17.60;100.00
33635;BME280;19972;54.360;10.076;2022-08-25T04:47:19;102575.50;;;17.80;100.00
33635;BME280;19972;54.360;10.076;2022-08-25T04:49:46;102574.56;;;17.66;100.00
33635;BME280;19972;54.360;10.076;2022-08-25T04:52:13;102578.31;;;17.78;100.00
33635;BME280;19972;54.360;10.076;2022-08-25T04:54:40;102579.50;;;17.87;100.00
33635;BME280;19972;54.360;10.076;2022-08-25T04:57:07;102574.28;;;17.98;100.00
33635;BME280;19972;54.360;10.076;2022-08-25T04:59:33;102567.56;;;18.05;100.00
33635;BME280;19972;54.360;10.076;2022-08-25T05:02:00;102566.09;;;18.14;100.00
33635;BME280;19972;54.360;10.076;2022-08-25T05:04:28;102569.75;;;18.13;100.00
33635;BME280;19972;54.360;10.076;2022-08-25T05:06:56;102574.28;;;18.25;100.00
33635;BME280;19972;54.360;10.076;2022-08-25T05:09:23;102574.53;;;18.35;100.00
33635;BME280;19972;54.360;10.076;2022-08-25T05:11:51;102577.97;;;18.37;100.00
33635;BME280;19972;54.360;10.076;2022-08-25T05:14:17;102584.03;;;18.40;100.00
33635;BME280;19972;54.360;10.076;2022-08-25T05:16:51;102572.25;;;18.68;100.00
33635;BME280;19972;54.360;10.076;2022-08-25T05:19:17;102573.81;;;18.58;100.00
33635;BME280;19972;54.360;10.076;2022-08-25T05:21:44;102571.13;;;18.58;100.00
33635;BME280;19972;54.360;10.076;2022-08-25T05:24:11;102566.84;;;18.56;100.00
33635;BME280;19972;54.360;10.076;2022-08-25T05:26:37;102559.50;;;18.45;100.00
33635;BME280;19972;54.360;10.076;2022-08-25T05:29:05;102567.03;;;18.40;100.00
33635;BME280;19972;54.360;10.076;2022-08-25T05:31:32;102562.94;;;18.47;100.00
33635;BME280;19972;54.360;10.076;2022-08-25T05:34:05;102560.06;;;18.50;100.00
33635;BME280;19972;54.360;10.076;2022-08-25T05:36:32;102556.34;;;18.91;100.00
33635;BME280;19972;54.360;10.076;2022-08-25T05:38:59;102546.25;;;18.94;100.00
33635;BME280;19972;54.360;10.076;2022-08-25T05:41:28;102554.72;;;19.01;100.00
33635;BME280;19972;54.360;10.076;2022-08-25T05:43:55;102535.97;;;19.12;100.00
33635;BME280;19972;54.360;10.076;2022-08-25T05:46:22;102537.59;;;19.15;100.00
33635;BME280;19972;54.360;10.076;2022-08-25T05:48:49;102523.47;;;19.24;100.00
33635;BME280;19972;54.360;10.076;2022-08-25T05:51:17;102515.19;;;19.27;100.00
33635;BME280;19972;54.360;10.076;2022-08-25T05:53:46;102491.97;;;19.37;100.00
33635;BME280;19972;54.360;10.076;2022-08-25T05:56:13;102483.34;;;19.45;100.00
33635;BME280;19972;54.360;10.076;2022-08-25T05:58:41;102479.22;;;19.52;100.00
33635;BME280;19972;54.360;10.076;2022-08-25T06:01:08;102471.13;;;19.52;100.00
33635;BME280;19972;54.360;10.076;2022-08-25T06:03:53;102465.03;;;19.74;100.00
33635;BME280;19972;54.360;10.076;2022-08-25T06:06:23;102446.84;;;19.89;100.00
33635;BME280;19972;54.360;10.076;2022-08-25T06:08:50;102436.06;;;19.89;100.00
33635;BME280;19972;54.360;10.076;2022-08-25T06:11:17;102435.34;;;19.98;100.00
33635;BME280;19972;54.360;10.076;2022-08-25T06:13:44;102426.56;;;20.07;100.00
33635;BME280;19972;54.360;10.076;2022-08-25T06:16:11;102419.59;;;20.16;100.00
33635;BME280;19972;54.360;10.076;2022-08-25T06:18:38;102398.66;;;20.98;100.00
33635;BME280;19972;54.360;10.076;2022-08-25T06:21:12;102393.53;;;20.72;100.00
33635;BME280;19972;54.360;10.076;2022-08-25T06:23:40;102384.56;;;20.38;100.00
33635;BME280;19972;54.360;10.076;2022-08-25T06:26:09;102366.75;;;20.24;100.00
33635;BME280;19972;54.360;10.076;2022-08-25T06:28:43;102351.56;;;20.35;100.00
33635;BME280;19972;54.360;10.076;2022-08-25T06:31:09;102335.88;;;20.17;100.00
33635;BME280;19972;54.360;10.076;2022-08-25T06:33:36;102324.81;;;20.20;100.00
33635;BME280;19972;54.360;10.076;2022-08-25T06:36:03;102311.47;;;20.08;100.00
33635;BME280;19972;54.360;10.076;2022-08-25T06:38:29;102298.13;;;20.17;100.00
33635;BME280;19972;54.360;10.076;2022-08-25T06:40:56;102293.44;;;20.08;100.00
33635;BME280;19972;54.360;10.076;2022-08-25T06:43:23;102280.22;;;20.39;100.00
33635;BME280;19972;54.360;10.076;2022-08-25T06:45:50;102274.34;;;20.11;100.00
33635;BME280;19972;54.360;10.076;2022-08-25T06:48:16;102263.41;;;20.24;100.00
33635;BME280;19972;54.360;10.076;2022-08-25T06:50:43;102249.66;;;20.61;100.00
33635;BME280;19972;54.360;10.076;2022-08-25T06:53:10;102230.69;;;20.51;100.00
33635;BME280;19972;54.360;10.076;2022-08-25T06:55:36;102209.22;;;20.81;100.00
33635;BME280;19972;54.360;10.076;2022-08-25T06:58:03;102190.03;;;20.96;100.00
33635;BME280;19972;54.360;10.076;2022-08-25T07:00:31;102177.09;;;20.78;100.00
33635;BME280;19972;54.360;10.076;2022-08-25T07:02:58;102164.53;;;20.89;100.00
33635;BME280;19972;54.360;10.076;2022-08-25T07:05:27;102153.16;;;21.06;100.00
33635;BME280;19972;54.360;10.076;2022-08-25T07:08:08;102133.25;;;21.07;100.00
33635;BME280;19972;54.360;10.076;2022-08-25T07:10:37;102126.25;;;21.25;100.00
33635;BME280;19972;54.360;10.076;2022-08-25T07:13:04;102115.84;;;21.42;100.00
33635;BME280;19972;54.360;10.076;2022-08-25T07:15:30;102083.09;;;21.75;100.00
33635;BME280;19972;54.360;10.076;2022-08-25T07:17:57;102065.69;;;21.58;100.00
33635;BME280;19972;54.360;10.076;2022-08-25T07:20:24;102056.13;;;21.45;100.00
33635;BME280;19972;54.360;10.076;2022-08-25T07:22:56;102029.84;;;21.16;100.00
33635;BME280;19972;54.360;10.076;2022-08-25T07:25:23;102019.72;;;21.39;100.00
33635;BME280;19972;54.360;10.076;2022-08-25T07:27:49;102009.03;;;21.38;100.00
33635;BME280;19972;54.360;10.076;2022-08-25T07:30:16;102008.94;;;21.58;100.00
33635;BME280;19972;54.360;10.076;2022-08-25T07:32:44;101989.09;;;21.88;100.00
33635;BME280;19972;54.360;10.076;2022-08-25T07:35:10;101987.94;;;22.01;100.00
33635;BME280;19972;54.360;10.076;2022-08-25T07:37:46;101966.59;;;22.07;100.00
33635;BME280;19972;54.360;10.076;2022-08-25T07:40:21;101949.97;;;22.12;100.00
33635;BME280;19972;54.360;10.076;2022-08-25T07:42:50;101923.19;;;22.28;100.00
33635;BME280;19972;54.360;10.076;2022-08-25T07:45:18;101919.91;;;22.05;100.00
33635;BME280;19972;54.360;10.076;2022-08-25T07:47:47;101911.34;;;22.29;100.00
33635;BME280;19972;54.360;10.076;2022-08-25T07:50:17;101909.59;;;22.48;100.00
33635;BME280;19972;54.360;10.076;2022-08-25T07:52:44;101889.81;;;22.75;100.00
33635;BME280;19972;54.360;10.076;2022-08-25T07:55:21;101889.28;;;22.71;100.00
33635;BME280;19972;54.360;10.076;2022-08-25T07:57:48;101871.31;;;22.70;100.00
33635;BME280;19972;54.360;10.076;2022-08-25T08:00:21;101864.31;;;22.50;100.00
33635;BME280;19972;54.360;10.076;2022-08-25T08:02:49;101860.56;;;22.60;100.00
33635;BME280;19972;54.360;10.076;2022-08-25T08:05:16;101868.66;;;22.98;100.00
33635;BME280;19972;54.360;10.076;2022-08-25T08:07:43;101854.59;;;23.48;100.00
33635;BME280;19972;54.360;10.076;2022-08-25T08:10:12;101841.81;;;23.76;100.00
33635;BME280;19972;54.360;10.076;2022-08-25T08:12:59;101846.56;;;23.56;100.00
33635;BME280;19972;54.360;10.076;2022-08-25T08:15:26;101851.03;;;23.29;100.00
33635;BME280;19972;54.360;10.076;2022-08-25T08:17:58;101842.84;;;23.21;100.00
33635;BME280;19972;54.360;10.076;2022-08-25T08:20:25;101846.09;;;23.78;100.00
33635;BME280;19972;54.360;10.076;2022-08-25T08:22:52;101848.50;;;23.63;100.00
33635;BME280;19972;54.360;10.076;2022-08-25T08:25:18;101847.31;;;23.12;100.00
33635;BME280;19972;54.360;10.076;2022-08-25T08:27:52;101838.81;;;23.25;100.00
33635;BME280;19972;54.360;10.076;2022-08-25T08:30:21;101833.47;;;23.51;100.00
33635;BME280;19972;54.360;10.076;2022-08-25T08:32:52;101840.94;;;23.04;100.00
33635;BME280;19972;54.360;10.076;2022-08-25T08:35:35;101820.84;;;23.06;100.00
33635;BME280;19972;54.360;10.076;2022-08-25T08:38:02;101831.84;;;23.05;100.00
33635;BME280;19972;54.360;10.076;2022-08-25T08:40:45;101825.66;;;23.30;100.00
33635;BME280;19972;54.360;10.076;2022-08-25T08:43:33;101825.47;;;23.85;100.00
33635;BME280;19972;54.360;10.076;2022-08-25T08:46:02;101834.16;;;23.53;100.00
33635;BME280;19972;54.360;10.076;2022-08-25T08:48:48;101830.69;;;23.79;100.00
33635;BME280;19972;54.360;10.076;2022-08-25T08:51:25;101820.25;;;23.92;100.00
33635;BME280;19972;54.360;10.076;2022-08-25T08:54:06;101826.34;;;24.12;100.00
33635;BME280;19972;54.360;10.076;2022-08-25T08:56:44;101827.13;;;23.78;100.00
33635;BME280;19972;54.360;10.076;2022-08-25T08:59:16;101828.88;;;24.13;100.00
33635;BME280;19972;54.360;10.076;2022-08-25T09:01:48;101829.19;;;24.36;100.00
33635;BME280;19972;54.360;10.076;2022-08-25T09:06:53;101823.78;;;24.10;100.00
33635;BME280;19972;54.360;10.076;2022-08-25T09:09:32;101822.44;;;24.40;100.00
33635;BME280;19972;54.360;10.076;2022-08-25T09:17:38;101819.75;;;24.48;100.00
33635;BME280;19972;54.360;10.076;2022-08-25T09:20:26;101808.34;;;24.79;100.00
33635;BME280;19972;54.360;10.076;2022-08-25T09:28:49;101815.31;;;24.39;100.00
33635;BME280;19972;54.360;10.076;2022-08-25T09:34:00;101793.88;;;24.02;100.00
33635;BME280;19972;54.360;10.076;2022-08-25T09:36:28;101798.75;;;23.98;100.00
33635;BME280;19972;54.360;10.076;2022-08-25T09:38:56;101793.81;;;24.20;100.00
33635;BME280;19972;54.360;10.076;2022-08-25T09:41:42;101791.81;;;24.56;100.00
33635;BME280;19972;54.360;10.076;2022-08-25T09:44:21;101802.91;;;24.37;100.00
33635;BME280;19972;54.360;10.076;2022-08-25T09:47:39;101801.63;;;24.23;100.00
33635;BME280;19972;54.360;10.076;2022-08-25T09:49:46;101802.44;;;24.41;100.00
33635;BME280;19972;54.360;10.076;2022-08-25T09:52:25;101806.06;;;24.58;100.00
33635;BME280;19972;54.360;10.076;2022-08-25T09:55:20;101832.78;;;24.71;100.00
33635;BME280;19972;54.360;10.076;2022-08-25T09:57:53;101830.13;;;24.95;100.00
33635;BME280;19972;54.360;10.076;2022-08-25T10:00:31;101840.41;;;25.26;100.00
33635;BME280;19972;54.360;10.076;2022-08-25T10:03:20;101841.47;;;25.90;100.00
33635;BME280;19972;54.360;10.076;2022-08-25T10:08:38;101825.41;;;26.75;100.00
33635;BME280;19972;54.360;10.076;2022-08-25T10:11:11;101838.25;;;26.58;100.00
33635;BME280;19972;54.360;10.076;2022-08-25T10:13:44;101844.16;;;27.09;100.00
33635;BME280;19972;54.360;10.076;2022-08-25T10:16:25;101907.38;;;27.13;100.00
33635;BME280;19972;54.360;10.076;2022-08-25T10:19:12;101979.13;;;27.05;100.00
33635;BME280;19972;54.360;10.076;2022-08-25T10:21:42;102083.09;;;26.62;100.00
33635;BME280;19972;54.360;10.076;2022-08-25T10:24:11;102095.34;;;26.90;100.00
33635;BME280;19972;54.360;10.076;2022-08-25T10:26:58;102105.19;;;27.32;100.00
33635;BME280;19972;54.360;10.076;2022-08-25T10:32:15;102100.97;;;26.64;100.00
33635;BME280;19972;54.360;10.076;2022-08-25T10:34:54;102148.47;;;27.02;100.00
33635;BME280;19972;54.360;10.076;2022-08-25T10:37:25;102173.50;;;27.30;100.00
33635;BME280;19972;54.360;10.076;2022-08-25T10:45:28;102189.72;;;27.32;100.00
33635;BME280;19972;54.360;10.076;2022-08-25T10:54:12;102168.06;;;27.94;100.00
33635;BME280;19972;54.360;10.076;2022-08-25T10:57:27;102168.78;;;27.80;100.00
33635;BME280;19972;54.360;10.076;2022-08-25T11:00:20;102145.91;;;29.12;100.00
33635;BME280;19972;54.360;10.076;2022-08-25T11:08:34;102015.84;;;31.23;100.00
33635;BME280;19972;54.360;10.076;2022-08-25T11:11:12;102025.72;;;31.11;100.00
33635;BME280;19972;54.360;10.076;2022-08-25T11:13:54;101958.41;;;31.76;100.00
33635;BME280;19972;54.360;10.076;2022-08-25T11:16:35;101933.31;;;32.19;100.00
33635;BME280;19972;54.360;10.076;2022-08-25T11:21:51;101867.97;;;31.68;100.00
33635;BME280;19972;54.360;10.076;2022-08-25T11:24:35;101883.66;;;31.88;100.00
33635;BME280;19972;54.360;10.076;2022-08-25T11:27:11;101865.44;;;32.33;100.00
33635;BME280;19972;54.360;10.076;2022-08-25T11:29:48;101780.72;;;33.45;100.00
33635;BME280;19972;54.360;10.076;2022-08-25T11:32:19;101803.59;;;33.39;100.00
33635;BME280;19972;54.360;10.076;2022-08-25T11:34:48;101733.91;;;34.06;100.00
33635;BME280;19972;54.360;10.076;2022-08-25T11:37:25;101733.97;;;34.36;100.00
33635;BME280;19972;54.360;10.076;2022-08-25T11:40:25;101832.47;;;32.26;100.00
33635;BME280;19972;54.360;10.076;2022-08-25T11:43:46;101795.88;;;32.91;100.00
33635;BME280;19972;54.360;10.076;2022-08-25T11:49:02;101709.81;;;34.02;100.00
33635;BME280;19972;54.360;10.076;2022-08-25T11:51:40;101703.47;;;34.80;100.00
33635;BME280;19972;54.360;10.076;2022-08-25T11:54:27;101661.09;;;35.16;100.00
33635;BME280;19972;54.360;10.076;2022-08-25T11:56:56;101660.75;;;35.59;100.00
33635;BME280;19972;54.360;10.076;2022-08-25T12:02:35;101706.25;;;34.50;100.00
33635;BME280;19972;54.360;10.076;2022-08-25T12:11:05;101827.41;;;33.83;100.00
33635;BME280;19972;54.360;10.076;2022-08-25T12:13:47;101926.94;;;31.72;100.00
33635;BME280;19972;54.360;10.076;2022-08-25T12:19:24;102021.09;;;29.40;100.00
33635;BME280;19972;54.360;10.076;2022-08-25T12:21:56;102033.84;;;30.20;100.00
33635;BME280;19972;54.360;10.076;2022-08-25T12:30:56;101841.16;;;33.58;100.00
33635;BME280;19972;54.360;10.076;2022-08-25T12:36:06;101821.22;;;33.31;100.00
33635;BME280;19972;54.360;10.076;2022-08-25T12:38:41;101854.47;;;32.13;100.00
33635;BME280;19972;54.360;10.076;2022-08-25T12:41:26;101913.81;;;31.68;100.00
33635;BME280;19972;54.360;10.076;2022-08-25T12:47:25;101748.06;;;33.48;100.00
33635;BME280;19972;54.360;10.076;2022-08-25T12:53:41;101902.97;;;31.26;100.00
33635;BME280;19972;54.360;10.076;2022-08-25T12:56:28;101861.53;;;32.67;100.00
33635;BME280;19972;54.360;10.076;2022-08-25T13:01:51;101907.84;;;30.90;100.00
33635;BME280;19972;54.360;10.076;2022-08-25T13:12:16;101815.94;;;33.61;100.00
33635;BME280;19972;54.360;10.076;2022-08-25T13:14:45;101763.69;;;33.23;100.00
33635;BME280;19972;54.360;10.076;2022-08-25T13:17:29;101805.47;;;33.13;100.00
33635;BME280;19972;54.360;10.076;2022-08-25T13:20:23;101726.66;;;34.12;100.00
33635;BME280;19972;54.360;10.076;2022-08-25T13:22:52;101762.84;;;32.91;100.00
33635;BME280;19972;54.360;10.076;2022-08-25T13:25:31;101872.97;;;31.25;100.00
33635;BME280;19972;54.360;10.076;2022-08-25T13:28:03;101847.00;;;32.60;100.00
33635;BME280;19972;54.360;10.076;2022-08-25T13:30:34;101767.25;;;32.53;100.00
33635;BME280;19972;54.360;10.076;2022-08-25T13:33:21;101738.75;;;34.11;100.00
33635;BME280;19972;54.360;10.076;2022-08-25T13:35:53;101661.13;;;34.86;100.00
33635;BME280;19972;54.360;10.076;2022-08-25T13:38:38;101542.09;;;37.06;100.00
33635;BME280;19972;54.360;10.076;2022-08-25T13:41:06;101495.06;;;36.72;100.00
33635;BME280;19972;54.360;10.076;2022-08-25T13:43:38;101623.28;;;35.05;100.00
33635;BME280;19972;54.360;10.076;2022-08-25T13:46:06;101669.09;;;34.04;100.00
33635;BME280;19972;54.360;10.076;2022-08-25T13:48:38;101760.69;;;32.99;100.00
33635;BME280;19972;54.360;10.076;2022-08-25T13:51:25;101748.78;;;33.80;100.00
33635;BME280;19972;54.360;10.076;2022-08-25T13:54:09;101709.19;;;33.31;100.00
33635;BME280;19972;54.360;10.076;2022-08-25T13:56:50;101685.34;;;34.72;100.00
33635;BME280;19972;54.360;10.076;2022-08-25T13:59:29;101635.31;;;34.80;100.00
33635;BME280;19972;54.360;10.076;2022-08-25T14:02:06;101633.22;;;35.06;100.00
33635;BME280;19972;54.360;10.076;2022-08-25T14:10:09;101509.13;;;36.87;100.00
33635;BME280;19972;54.360;10.076;2022-08-25T14:12:40;101477.44;;;37.17;100.00
33635;BME280;19972;54.360;10.076;2022-08-25T14:18:08;101719.91;;;33.15;100.00
33635;BME280;19972;54.360;10.076;2022-08-25T14:20:45;101690.56;;;34.13;100.00
33635;BME280;19972;54.360;10.076;2022-08-25T14:23:17;101655.47;;;34.81;100.00
33635;BME280;19972;54.360;10.076;2022-08-25T14:25:45;101517.19;;;36.38;100.00
33635;BME280;19972;54.360;10.076;2022-08-25T14:28:16;101573.59;;;35.16;100.00